createdAt,value
2023-01-30T00:01:48.334Z,18.48
2023-01-30T00:04:21.268Z,20.55
2023-01-30T00:06:48.066Z,21.65
2023-01-30T00:09:21.278Z,21.23
2023-01-30T00:11:48.006Z,17.67
2023-01-30T00:14:15.409Z,20.35
2023-01-30T00:16:42.895Z,17.60
2023-01-30T00:19:16.249Z,19.70
2023-01-30T00:21:42.985Z,20.05
2023-01-30T00:24:09.715Z,18.73
2023-01-30T00:26:36.588Z,20.92
2023-01-30T00:29:03.370Z,17.83
2023-01-30T00:31:30.137Z,17.98
2023-01-30T00:33:56.915Z,20.83
2023-01-30T00:36:30.304Z,18.13
2023-01-30T00:38:58.377Z,16.73
2023-01-30T00:41:45.119Z,16.63
2023-01-30T00:44:30.387Z,18.60
2023-01-30T00:47:06.217Z,18.05
2023-01-30T00:49:33.140Z,18.30
2023-01-30T00:51:59.903Z,18.98
2023-01-30T00:54:26.702Z,15.05
2023-01-30T00:56:53.494Z,14.35
2023-01-30T00:59:20.833Z,16.73
2023-01-30T01:01:50.429Z,15.75
2023-01-30T01:04:17.205Z,15.85
2023-01-30T01:06:43.967Z,14.43
2023-01-30T01:09:10.791Z,16.40
2023-01-30T01:11:37.592Z,15.20
2023-01-30T01:14:06.015Z,14.88
2023-01-30T01:16:35.689Z,14.77
2023-01-30T01:19:02.716Z,14.13
2023-01-30T01:21:29.737Z,17.05
2023-01-30T01:24:00.915Z,16.90
2023-01-30T01:26:27.934Z,17.30
2023-01-30T01:28:58.763Z,16.88
2023-01-30T01:31:26.542Z,16.08
2023-01-30T01:33:53.398Z,14.60
2023-01-30T01:36:49.869Z,14.90
2023-01-30T01:39:07.253Z,16.30
2023-01-30T01:41:34.155Z,16.85
2023-01-30T01:44:06.802Z,15.07
2023-01-30T01:46:42.647Z,16.83
2023-01-30T01:49:32.605Z,13.20
2023-01-30T01:52:08.739Z,16.52
2023-01-30T01:54:39.647Z,16.70
2023-01-30T01:57:17.217Z,18.98
2023-01-30T01:59:59.378Z,17.80
2023-01-30T02:02:26.804Z,15.93
2023-01-30T02:05:02.788Z,15.75
2023-01-30T02:07:45.939Z,17.13
2023-01-30T02:10:17.814Z,16.77
2023-01-30T02:12:45.749Z,18.35
2023-01-30T02:15:12.643Z,15.00
2023-01-30T02:17:39.527Z,15.98
2023-01-30T02:20:49.035Z,18.08
2023-01-30T02:23:34.149Z,17.48
2023-01-30T02:26:24.397Z,17.60
2023-01-30T02:29:18.956Z,19.23
2023-01-30T02:32:03.979Z,18.58
2023-01-30T02:34:30.711Z,21.45
2023-01-30T02:37:06.703Z,19.35
2023-01-30T02:39:39.160Z,22.08
2023-01-30T02:42:19.080Z,21.63
2023-01-30T02:45:02.233Z,19.67
2023-01-30T02:47:49.548Z,20.75
2023-01-30T02:50:38.751Z,21.58
2023-01-30T02:53:06.860Z,21.08
2023-01-30T02:55:33.655Z,20.13
2023-01-30T02:58:02.451Z,18.08
2023-01-30T03:00:52.049Z,19.48
2023-01-30T03:03:45.640Z,22.38
2023-01-30T03:06:15.694Z,21.58
2023-01-30T03:09:08.345Z,19.58
2023-01-30T03:11:58.102Z,21.27
2023-01-30T03:14:34.100Z,20.35
2023-01-30T03:17:04.504Z,19.75
2023-01-30T03:19:31.555Z,25.17
2023-01-30T03:21:58.328Z,23.98
2023-01-30T03:24:25.394Z,21.92
2023-01-30T03:27:19.268Z,22.52
2023-01-30T03:29:46.130Z,23.10
2023-01-30T03:32:12.967Z,23.40
2023-01-30T03:34:39.754Z,21.58
2023-01-30T03:37:06.737Z,23.88
2023-01-30T03:39:33.541Z,24.10
2023-01-30T03:42:00.329Z,21.25
2023-01-30T03:44:27.052Z,21.27
2023-01-30T03:46:53.831Z,27.15
2023-01-30T03:49:21.562Z,25.30
2023-01-30T03:51:48.457Z,22.98
2023-01-30T03:54:15.557Z,24.70
2023-01-30T03:56:42.303Z,21.95
2023-01-30T03:59:09.408Z,20.35
2023-01-30T04:01:36.255Z,21.13
2023-01-30T04:04:03.089Z,20.02
2023-01-30T04:06:29.954Z,19.45
2023-01-30T04:08:56.852Z,16.55
2023-01-30T04:11:23.692Z,21.73
2023-01-30T04:13:50.523Z,20.85
2023-01-30T04:16:22.643Z,21.17
2023-01-30T04:18:49.546Z,18.45
2023-01-30T04:21:16.719Z,22.67
2023-01-30T04:23:43.526Z,21.48
2023-01-30T04:26:11.077Z,22.02
2023-01-30T04:28:38.082Z,17.13
2023-01-30T04:31:05.079Z,19.20
2023-01-30T04:33:35.300Z,19.80
2023-01-30T04:36:04.024Z,18.95
2023-01-30T04:38:32.285Z,17.77
2023-01-30T04:40:59.815Z,20.40
2023-01-30T04:43:28.313Z,16.80
2023-01-30T04:45:56.011Z,18.30
2023-01-30T04:48:24.636Z,16.50
2023-01-30T04:50:54.068Z,18.25
2023-01-30T04:53:21.321Z,19.17
2023-01-30T04:55:48.704Z,16.85
2023-01-30T04:58:16.493Z,17.35
2023-01-30T05:00:43.361Z,15.50
2023-01-30T05:03:10.174Z,14.88
2023-01-30T05:05:36.971Z,15.90
2023-01-30T05:08:04.306Z,15.32
2023-01-30T05:10:31.155Z,15.35
2023-01-30T05:13:02.534Z,13.82
2023-01-30T05:15:29.332Z,14.90
2023-01-30T05:17:56.115Z,16.10
2023-01-30T05:20:22.978Z,15.43
2023-01-30T05:22:49.772Z,16.92
2023-01-30T05:25:17.057Z,16.40
2023-01-30T05:27:44.004Z,16.15
2023-01-30T05:30:11.315Z,18.17
2023-01-30T05:32:38.137Z,17.40
2023-01-30T05:35:05.559Z,15.23
2023-01-30T05:37:32.348Z,14.43
2023-01-30T05:39:59.151Z,15.23
2023-01-30T05:42:25.902Z,14.57
2023-01-30T05:44:52.689Z,15.23
2023-01-30T05:47:19.466Z,14.68
2023-01-30T05:49:46.280Z,18.05
2023-01-30T05:52:13.069Z,13.48
2023-01-30T05:54:39.876Z,16.27
2023-01-30T05:57:06.670Z,14.93
2023-01-30T05:59:33.466Z,15.68
2023-01-30T06:02:00.251Z,14.20
2023-01-30T06:04:27.044Z,14.35
2023-01-30T06:06:53.862Z,14.52
2023-01-30T06:09:20.596Z,15.80
2023-01-30T06:11:47.450Z,15.93
2023-01-30T06:14:14.271Z,13.25
2023-01-30T06:16:41.095Z,12.75
2023-01-30T06:19:09.089Z,14.75
2023-01-30T06:21:35.848Z,13.60
2023-01-30T06:24:03.573Z,15.90
2023-01-30T06:26:30.327Z,13.18
2023-01-30T06:28:57.178Z,10.98
2023-01-30T06:31:24.026Z,13.23
2023-01-30T06:33:50.882Z,14.27
2023-01-30T06:36:17.703Z,14.20
2023-01-30T06:38:44.506Z,11.90
2023-01-30T06:41:11.284Z,14.27
2023-01-30T06:43:38.059Z,12.85
2023-01-30T06:46:05.032Z,12.05
2023-01-30T06:48:31.855Z,11.77
2023-01-30T06:50:58.675Z,12.23
2023-01-30T06:53:30.391Z,14.10
2023-01-30T06:55:58.897Z,12.27
2023-01-30T06:58:26.000Z,14.32
2023-01-30T07:00:53.451Z,12.45
2023-01-30T07:03:20.472Z,11.90
2023-01-30T07:05:47.976Z,11.95
2023-01-30T07:08:16.428Z,12.48
2023-01-30T07:10:44.701Z,12.80
2023-01-30T07:13:12.175Z,13.20
2023-01-30T07:15:39.571Z,12.50
2023-01-30T07:18:06.373Z,13.05
2023-01-30T07:20:33.404Z,11.90
2023-01-30T07:23:00.506Z,12.48
2023-01-30T07:25:28.408Z,13.82
2023-01-30T07:28:00.596Z,11.82
2023-01-30T07:30:29.048Z,15.63
2023-01-30T07:32:58.223Z,10.55
2023-01-30T07:35:26.827Z,13.68
2023-01-30T07:37:53.732Z,14.63
2023-01-30T07:40:21.786Z,15.05
2023-01-30T07:42:58.586Z,12.73
2023-01-30T07:45:27.779Z,12.50
2023-01-30T07:47:54.548Z,13.15
2023-01-30T07:50:21.392Z,11.82
2023-01-30T07:52:48.173Z,11.93
2023-01-30T07:55:15.090Z,10.82
2023-01-30T07:57:41.905Z,9.85
2023-01-30T08:00:10.884Z,15.10
2023-01-30T08:02:37.819Z,10.70
2023-01-30T08:05:06.265Z,11.23
2023-01-30T08:07:33.605Z,9.32
2023-01-30T08:10:00.486Z,9.55
2023-01-30T08:12:27.870Z,9.50
2023-01-30T08:14:54.674Z,7.95
2023-01-30T08:17:21.552Z,8.73
2023-01-30T08:19:48.325Z,7.45
2023-01-30T08:22:15.587Z,7.28
2023-01-30T08:24:42.356Z,7.43
2023-01-30T08:27:09.241Z,6.20
2023-01-30T08:29:36.052Z,6.63
2023-01-30T08:32:02.932Z,5.15
2023-01-30T08:34:29.741Z,6.78
2023-01-30T08:36:56.495Z,4.53
2023-01-30T08:39:23.236Z,5.72
2023-01-30T08:41:50.111Z,4.78
2023-01-30T08:44:16.893Z,5.22
2023-01-30T08:46:43.871Z,4.55
2023-01-30T08:49:11.085Z,4.35
2023-01-30T08:51:38.282Z,4.20
2023-01-30T08:54:07.630Z,5.68
2023-01-30T08:56:35.136Z,3.42
2023-01-30T08:59:01.909Z,2.83
2023-01-30T09:01:28.966Z,4.22
2023-01-30T09:03:55.882Z,2.88
2023-01-30T09:06:25.062Z,3.15
2023-01-30T09:08:52.817Z,3.40
2023-01-30T09:11:19.910Z,3.35
2023-01-30T09:13:49.794Z,2.95
2023-01-30T09:16:17.082Z,2.95
2023-01-30T09:18:44.693Z,2.60
2023-01-30T09:21:13.217Z,2.40
2023-01-30T09:23:40.059Z,2.20
2023-01-30T09:26:06.992Z,2.58
2023-01-30T09:28:34.505Z,1.38
2023-01-30T09:31:02.149Z,2.83
2023-01-30T09:33:29.455Z,2.40
2023-01-30T09:35:56.674Z,2.00
2023-01-30T09:38:23.601Z,1.80
2023-01-30T09:41:22.562Z,2.10
2023-01-30T09:44:08.648Z,2.42
2023-01-30T09:46:48.455Z,2.10
2023-01-30T09:49:48.975Z,2.17
2023-01-30T09:52:35.241Z,2.42
2023-01-30T09:55:24.239Z,2.00
2023-01-30T09:57:52.508Z,1.02
2023-01-30T10:00:35.797Z,2.03
2023-01-30T10:03:08.645Z,2.58
2023-01-30T10:05:49.154Z,1.42
2023-01-30T10:08:21.082Z,2.08
2023-01-30T10:10:55.127Z,1.30
2023-01-30T10:13:36.115Z,1.70
2023-01-30T10:16:13.222Z,2.65
2023-01-30T10:19:13.401Z,2.03
2023-01-30T10:22:09.058Z,1.58
2023-01-30T10:24:54.083Z,2.00
2023-01-30T10:27:22.579Z,1.80
2023-01-30T10:29:57.140Z,2.03
2023-01-30T10:32:33.120Z,1.60
2023-01-30T10:35:19.949Z,1.65
2023-01-30T10:38:07.438Z,2.05
2023-01-30T10:40:38.718Z,2.88
2023-01-30T10:43:32.946Z,2.03
2023-01-30T10:46:37.435Z,1.38
2023-01-30T10:49:18.629Z,2.05
2023-01-30T10:52:07.544Z,2.42
2023-01-30T10:54:41.769Z,2.90
2023-01-30T10:57:35.378Z,2.88
2023-01-30T11:00:20.581Z,2.60
2023-01-30T11:03:10.786Z,3.22
2023-01-30T11:06:02.313Z,2.65
2023-01-30T11:08:33.368Z,2.72
2023-01-30T11:11:00.829Z,3.20
2023-01-30T11:13:34.569Z,2.22
2023-01-30T11:16:11.965Z,3.10
2023-01-30T11:21:43.405Z,2.38
2023-01-30T11:24:23.604Z,2.80
2023-01-30T11:26:52.599Z,2.88
2023-01-30T11:29:25.657Z,2.03
2023-01-30T11:31:53.462Z,2.03
2023-01-30T11:34:22.848Z,2.20
2023-01-30T11:36:50.338Z,2.20
2023-01-30T11:39:20.543Z,1.77
2023-01-30T11:41:58.738Z,2.33
2023-01-30T11:44:30.793Z,2.80
2023-01-30T11:47:09.091Z,2.60
2023-01-30T11:49:58.020Z,1.90
2023-01-30T11:52:44.125Z,2.33
2023-01-30T11:55:16.153Z,1.70
2023-01-30T11:57:53.954Z,1.73
2023-01-30T12:00:24.338Z,1.50
2023-01-30T12:02:53.643Z,1.85
2023-01-30T12:05:32.087Z,1.45
2023-01-30T12:08:42.384Z,2.58
2023-01-30T12:11:45.302Z,1.40
2023-01-30T12:14:25.552Z,1.25
2023-01-30T12:17:14.583Z,1.58
2023-01-30T12:20:14.889Z,1.85
2023-01-30T12:22:53.625Z,1.77
2023-01-30T12:25:32.877Z,1.38
2023-01-30T12:28:12.787Z,2.17
2023-01-30T12:30:56.425Z,2.35
2023-01-30T12:33:29.045Z,1.55
2023-01-30T12:36:29.668Z,1.55
2023-01-30T12:39:14.191Z,1.77
2023-01-30T12:41:59.673Z,2.05
2023-01-30T12:44:29.531Z,1.90
2023-01-30T12:47:31.771Z,1.30
2023-01-30T12:50:08.893Z,1.60
2023-01-30T12:52:50.747Z,2.55
2023-01-30T12:55:57.131Z,2.00
2023-01-30T12:58:37.045Z,1.38
2023-01-30T13:01:09.821Z,1.85
2023-01-30T13:03:50.544Z,2.03
2023-01-30T13:06:41.427Z,1.70
2023-01-30T13:09:29.790Z,1.90
2023-01-30T13:12:03.620Z,2.38
2023-01-30T13:14:33.260Z,1.35
2023-01-30T13:17:17.898Z,1.63
2023-01-30T13:19:54.025Z,2.47
2023-01-30T13:22:48.078Z,1.38
2023-01-30T13:25:38.553Z,2.78
2023-01-30T13:28:19.711Z,1.23
2023-01-30T13:30:51.810Z,1.65
2023-01-30T13:33:37.805Z,2.60
2023-01-30T13:36:07.463Z,1.45
2023-01-30T13:38:37.010Z,2.03
2023-01-30T13:41:04.916Z,2.55
2023-01-30T13:43:45.193Z,2.92
2023-01-30T13:46:18.475Z,2.53
2023-01-30T13:49:06.141Z,1.75
2023-01-30T13:51:43.279Z,3.47
2023-01-30T13:54:21.361Z,2.67
2023-01-30T13:56:57.356Z,1.67
2023-01-30T13:59:56.471Z,2.00
2023-01-30T14:02:25.065Z,3.88
2023-01-30T14:04:57.256Z,2.40
2023-01-30T14:07:33.716Z,1.77
2023-01-30T14:10:09.268Z,2.67
2023-01-30T14:12:47.697Z,1.60
2023-01-30T14:15:20.893Z,2.13
2023-01-30T14:18:00.596Z,1.88
2023-01-30T14:20:39.917Z,3.15
2023-01-30T14:23:32.113Z,2.65
2023-01-30T14:25:58.955Z,2.03
2023-01-30T14:28:28.861Z,2.67
2023-01-30T14:31:01.412Z,2.35
2023-01-30T14:33:32.025Z,2.28
2023-01-30T14:35:58.731Z,1.88
2023-01-30T14:38:36.529Z,2.42
2023-01-30T14:41:03.287Z,2.80
2023-01-30T14:43:48.504Z,2.85
2023-01-30T14:46:19.364Z,1.33
2023-01-30T14:48:56.888Z,4.28
2023-01-30T14:51:35.935Z,2.03
2023-01-30T14:54:14.503Z,1.90
2023-01-30T14:56:58.869Z,3.08
2023-01-30T14:59:52.108Z,1.73
2023-01-30T15:02:32.983Z,2.85
2023-01-30T15:05:06.330Z,2.85
2023-01-30T15:07:47.118Z,3.25
2023-01-30T15:10:22.185Z,2.22
2023-01-30T15:12:51.713Z,3.90
2023-01-30T15:15:46.193Z,3.58
2023-01-30T15:18:45.877Z,3.10
2023-01-30T15:21:50.508Z,1.90
2023-01-30T15:24:45.417Z,3.08
2023-01-30T15:27:29.136Z,3.00
2023-01-30T15:30:22.196Z,1.92
2023-01-30T15:32:49.235Z,2.95
2023-01-30T15:35:21.512Z,1.90
2023-01-30T15:37:56.210Z,3.13
2023-01-30T15:40:28.562Z,2.83
2023-01-30T15:43:09.749Z,2.53
2023-01-30T15:46:03.850Z,2.53
2023-01-30T15:49:27.053Z,2.78
2023-01-30T15:51:53.972Z,6.18
2023-01-30T15:54:23.855Z,4.60
2023-01-30T15:56:50.867Z,2.33
2023-01-30T15:59:34.931Z,4.43
2023-01-30T16:02:22.057Z,2.22
2023-01-30T16:04:49.007Z,3.45
2023-01-30T16:07:26.259Z,4.07
2023-01-30T16:10:06.707Z,5.88
2023-01-30T16:12:36.608Z,3.22
2023-01-30T16:15:17.463Z,2.50
2023-01-30T16:17:50.905Z,2.08
2023-01-30T16:20:18.009Z,3.40
2023-01-30T16:22:48.080Z,1.73
2023-01-30T16:25:29.785Z,4.05
2023-01-30T16:27:58.586Z,3.88
2023-01-30T16:30:29.893Z,5.45
2023-01-30T16:32:57.196Z,2.85
2023-01-30T16:35:28.235Z,5.20
2023-01-30T16:37:57.066Z,2.15
2023-01-30T16:40:26.519Z,4.35
2023-01-30T16:43:15.154Z,3.38
2023-01-30T16:46:24.756Z,2.67
2023-01-30T16:48:51.758Z,3.22
2023-01-30T16:51:23.849Z,2.63
2023-01-30T16:53:56.595Z,2.85
2023-01-30T16:56:23.880Z,2.63
2023-01-30T16:58:55.142Z,2.53
2023-01-30T17:01:24.249Z,3.72
2023-01-30T17:04:01.186Z,3.38
2023-01-30T17:06:42.586Z,5.18
2023-01-30T17:09:29.587Z,4.50
2023-01-30T17:11:56.559Z,3.47
2023-01-30T17:14:32.943Z,4.32
2023-01-30T17:17:06.502Z,3.10
2023-01-30T17:19:34.429Z,5.45
2023-01-30T17:22:05.154Z,3.08
2023-01-30T17:24:32.399Z,3.97
2023-01-30T17:27:04.172Z,3.15
2023-01-30T17:29:47.345Z,3.17
2023-01-30T17:32:15.929Z,4.20
2023-01-30T17:34:42.962Z,5.30
2023-01-30T17:37:22.400Z,4.45
2023-01-30T17:39:49.534Z,4.75
2023-01-30T17:42:22.065Z,5.18
2023-01-30T17:44:49.380Z,3.97
2023-01-30T17:47:16.267Z,4.03
2023-01-30T17:49:43.067Z,8.88
2023-01-30T17:52:13.282Z,6.78
2023-01-30T17:54:40.011Z,4.88
2023-01-30T17:57:09.816Z,8.10
2023-01-30T17:59:36.647Z,3.15
2023-01-30T18:02:04.132Z,2.40
2023-01-30T18:04:30.999Z,4.30
2023-01-30T18:07:04.538Z,3.15
2023-01-30T18:09:32.017Z,8.27
2023-01-30T18:11:58.872Z,2.90
2023-01-30T18:14:25.706Z,3.42
2023-01-30T18:16:52.887Z,3.20
2023-01-30T18:19:24.002Z,8.55
2023-01-30T18:21:51.141Z,6.00
2023-01-30T18:24:18.658Z,4.75
2023-01-30T18:26:46.079Z,4.78
2023-01-30T18:29:13.607Z,5.70
2023-01-30T18:31:41.274Z,3.50
2023-01-30T18:34:10.431Z,5.03
2023-01-30T18:36:38.630Z,4.18
2023-01-30T18:39:05.968Z,4.40
2023-01-30T18:41:32.956Z,5.85
2023-01-30T18:44:02.185Z,4.28
2023-01-30T18:46:30.005Z,4.90
2023-01-30T18:48:57.057Z,7.75
2023-01-30T18:51:26.532Z,8.00
2023-01-30T18:53:54.961Z,6.78
2023-01-30T18:56:25.171Z,6.10
2023-01-30T18:58:53.818Z,6.18
2023-01-30T19:01:23.387Z,5.15
2023-01-30T19:03:50.260Z,11.45
2023-01-30T19:06:20.437Z,3.63
2023-01-30T19:08:47.197Z,5.97
2023-01-30T19:11:35.328Z,6.53
2023-01-30T19:14:02.670Z,2.03
2023-01-30T19:16:31.376Z,9.35
2023-01-30T19:18:58.611Z,5.25
2023-01-30T19:21:26.253Z,5.63
2023-01-30T19:23:53.585Z,4.30
2023-01-30T19:26:22.423Z,6.35
2023-01-30T19:28:50.232Z,6.05
2023-01-30T19:31:19.166Z,7.85
2023-01-30T19:33:48.601Z,3.28
2023-01-30T19:36:17.992Z,5.13
2023-01-30T19:38:46.428Z,4.82
2023-01-30T19:41:23.120Z,5.80
2023-01-30T19:43:50.613Z,6.47
2023-01-30T19:46:17.896Z,3.72
2023-01-30T19:48:46.461Z,4.38
2023-01-30T19:51:19.848Z,4.57
2023-01-30T19:53:58.294Z,7.40
2023-01-30T19:56:26.380Z,6.30
2023-01-30T19:58:55.109Z,2.97
2023-01-30T20:01:23.662Z,4.00
2023-01-30T20:03:50.551Z,3.45
2023-01-30T20:06:20.347Z,3.33
2023-01-30T20:08:50.241Z,6.82
2023-01-30T20:11:19.032Z,6.85
2023-01-30T20:13:46.632Z,5.05
2023-01-30T20:16:18.425Z,5.00
2023-01-30T20:18:48.264Z,10.55
2023-01-30T20:21:20.093Z,11.23
2023-01-30T20:23:47.695Z,4.72
2023-01-30T20:26:22.449Z,5.35
2023-01-30T20:28:49.703Z,4.05
2023-01-30T20:31:22.171Z,5.18
2023-01-30T20:33:49.354Z,6.40
2023-01-30T20:36:19.397Z,4.32
2023-01-30T20:38:47.606Z,4.75
2023-01-30T20:41:19.975Z,6.50
2023-01-30T20:43:51.108Z,4.95
2023-01-30T20:46:29.612Z,5.80
2023-01-30T20:48:58.995Z,8.82
2023-01-30T20:51:31.560Z,10.00
2023-01-30T20:54:01.168Z,7.40
2023-01-30T20:56:35.536Z,6.38
2023-01-30T20:59:03.844Z,6.45
2023-01-30T21:01:31.022Z,5.47
2023-01-30T21:03:58.063Z,10.95
2023-01-30T21:06:41.222Z,10.93
2023-01-30T21:09:12.618Z,9.68
2023-01-30T21:11:40.024Z,7.68
2023-01-30T21:14:07.477Z,8.52
2023-01-30T21:16:35.794Z,7.57
2023-01-30T21:19:06.062Z,7.53
2023-01-30T21:21:38.107Z,8.77
2023-01-30T21:24:09.326Z,6.80
2023-01-30T21:26:39.404Z,9.23
2023-01-30T21:29:08.362Z,6.65
2023-01-30T21:31:37.514Z,9.45
2023-01-30T21:34:04.768Z,9.38
2023-01-30T21:36:31.864Z,5.93
2023-01-30T21:39:17.047Z,8.57
2023-01-30T21:42:04.205Z,6.13
2023-01-30T21:44:33.704Z,8.68
2023-01-30T21:47:00.683Z,7.28
2023-01-30T21:49:28.035Z,4.72
2023-01-30T21:51:55.475Z,5.63
2023-01-30T21:54:23.213Z,4.03
2023-01-30T21:56:50.828Z,4.63
2023-01-30T21:59:18.044Z,5.38
2023-01-30T22:01:45.517Z,8.07
2023-01-30T22:04:14.113Z,5.53
2023-01-30T22:06:41.963Z,8.48
2023-01-30T22:09:11.681Z,7.15
2023-01-30T22:11:38.827Z,5.43
2023-01-30T22:14:05.660Z,3.47
2023-01-30T22:16:33.797Z,4.75
2023-01-30T22:19:03.722Z,5.22
2023-01-30T22:21:33.683Z,4.28
2023-01-30T22:24:02.472Z,6.57
2023-01-30T22:26:29.717Z,4.50
2023-01-30T22:28:58.483Z,7.90
2023-01-30T22:31:27.587Z,3.60
2023-01-30T22:33:56.478Z,5.63
2023-01-30T22:36:25.040Z,5.82
2023-01-30T22:38:52.268Z,4.53
2023-01-30T22:41:21.756Z,4.40
2023-01-30T22:43:59.323Z,5.70
2023-01-30T22:46:29.145Z,3.95
2023-01-30T22:48:55.967Z,5.20
2023-01-30T22:51:28.509Z,7.95
2023-01-30T22:53:57.685Z,4.40
2023-01-30T22:56:27.313Z,3.95
2023-01-30T22:58:54.678Z,8.43
2023-01-30T23:01:27.658Z,3.40
2023-01-30T23:03:59.901Z,4.85
2023-01-30T23:06:27.637Z,3.15
2023-01-30T23:08:55.248Z,4.22
2023-01-30T23:11:28.734Z,4.00
2023-01-30T23:13:58.222Z,3.63
2023-01-30T23:16:27.761Z,6.60
2023-01-30T23:19:00.765Z,5.55
2023-01-30T23:21:29.053Z,3.17
2023-01-30T23:23:58.398Z,7.47
2023-01-30T23:26:29.637Z,4.72
2023-01-30T23:28:56.942Z,7.13
2023-01-30T23:31:26.389Z,5.95
2023-01-30T23:34:01.848Z,6.38
2023-01-30T23:36:29.706Z,6.85
2023-01-30T23:38:59.772Z,7.05
2023-01-30T23:41:32.007Z,3.65
2023-01-30T23:43:59.965Z,4.60
2023-01-30T23:46:29.476Z,6.75
2023-01-30T23:48:58.388Z,5.07
2023-01-30T23:51:27.797Z,7.97
2023-01-30T23:53:55.490Z,5.65
2023-01-30T23:56:23.672Z,6.70
2023-01-30T23:58:50.844Z,4.50
